createdAt,value
2024-03-12T00:01:21.306Z,98977.75
2024-03-12T00:03:50.789Z,98976.90
2024-03-12T00:06:20.214Z,98969.08
2024-03-12T00:08:49.816Z,98970.43
2024-03-12T00:11:18.159Z,98971.73
2024-03-12T00:13:46.981Z,98969.92
2024-03-12T00:16:15.563Z,98977.77
2024-03-12T00:18:44.593Z,98985.70
2024-03-12T00:21:13.849Z,98985.65
2024-03-12T00:23:43.573Z,98990.14
2024-03-12T00:26:12.186Z,98992.79
2024-03-12T00:28:40.461Z,98988.06
2024-03-12T00:31:10.385Z,98990.15
2024-03-12T00:33:38.451Z,98990.58
2024-03-12T00:36:07.280Z,98988.58
2024-03-12T00:38:35.580Z,98987.69
2024-03-12T00:41:05.086Z,98992.17
2024-03-12T00:43:33.594Z,98991.91
2024-03-12T00:46:03.127Z,98995.27
2024-03-12T00:48:31.217Z,98999.30
2024-03-12T00:50:59.409Z,99000.88
2024-03-12T00:53:27.796Z,99002.59
2024-03-12T00:55:56.174Z,99001.48
2024-03-12T00:58:25.097Z,99000.48
2024-03-12T01:00:55.072Z,98996.48
2024-03-12T01:03:25.575Z,98998.42
2024-03-12T01:05:55.019Z,98995.28
2024-03-12T01:08:23.323Z,98996.05
2024-03-12T01:10:51.688Z,98996.92
2024-03-12T01:13:20.075Z,98997.88
2024-03-12T01:15:49.552Z,98997.52
2024-03-12T01:18:17.787Z,98989.75
2024-03-12T01:20:46.316Z,98988.72
2024-03-12T01:23:15.015Z,98986.02
2024-03-12T01:25:43.269Z,98983.27
2024-03-12T01:28:12.020Z,98980.46
2024-03-12T01:30:41.099Z,98980.41
2024-03-12T01:33:09.659Z,98978.54
2024-03-12T01:35:41.935Z,98982.70
2024-03-12T01:38:12.149Z,98989.21
2024-03-12T01:40:43.169Z,98985.48
2024-03-12T01:43:14.568Z,98994.31
2024-03-12T01:45:44.030Z,98998.09
2024-03-12T01:48:13.469Z,99001.84
2024-03-12T01:50:42.589Z,99001.89
2024-03-12T01:53:12.403Z,98996.09
2024-03-12T01:55:45.344Z,98994.11
2024-03-12T01:58:16.104Z,98995.10
2024-03-12T02:00:46.234Z,98991.48
2024-03-12T02:03:15.330Z,98992.17
2024-03-12T02:05:43.818Z,98996.80
2024-03-12T02:08:12.570Z,99000.36
2024-03-12T02:10:41.344Z,98999.23
2024-03-12T02:13:09.677Z,98997.48
2024-03-12T02:15:38.207Z,98995.02
2024-03-12T02:18:10.750Z,98996.71
2024-03-12T02:20:39.665Z,98995.98
2024-03-12T02:23:07.982Z,98996.32
2024-03-12T02:25:36.332Z,98995.45
2024-03-12T02:28:05.091Z,98995.98
2024-03-12T02:30:33.331Z,98996.58
2024-03-12T02:33:04.153Z,99000.71
2024-03-12T02:35:36.166Z,99002.56
2024-03-12T02:38:05.142Z,99002.30
2024-03-12T02:40:33.325Z,99010.84
2024-03-12T02:43:01.576Z,99015.94
2024-03-12T02:45:30.073Z,99016.64
2024-03-12T02:47:58.488Z,99016.26
2024-03-12T02:50:27.581Z,99021.98
2024-03-12T02:52:56.828Z,99019.91
2024-03-12T02:55:25.042Z,99020.14
2024-03-12T02:57:53.177Z,99024.77
2024-03-12T03:00:22.649Z,99025.52
2024-03-12T03:02:50.888Z,99028.68
2024-03-12T03:05:19.264Z,99028.73
2024-03-12T03:07:49.721Z,99032.92
2024-03-12T03:10:17.945Z,99034.40
2024-03-12T03:12:46.682Z,99032.95
2024-03-12T03:15:15.442Z,99036.41
2024-03-12T03:17:45.188Z,99038.40
2024-03-12T03:20:15.713Z,99039.70
2024-03-12T03:22:44.289Z,99039.14
2024-03-12T03:25:13.901Z,99038.97
2024-03-12T03:27:42.300Z,99041.69
2024-03-12T03:30:19.674Z,99043.10
2024-03-12T03:32:49.451Z,99047.17
2024-03-12T03:35:19.654Z,99051.79
2024-03-12T03:37:48.410Z,99055.86
2024-03-12T03:40:24.496Z,99058.06
2024-03-12T03:42:54.706Z,99060.38
2024-03-12T03:45:26.402Z,99058.41
2024-03-12T03:47:55.033Z,99058.29
2024-03-12T03:50:23.276Z,99058.89
2024-03-12T03:52:53.909Z,99058.95
2024-03-12T03:55:23.369Z,99059.39
2024-03-12T03:57:51.953Z,99063.04
2024-03-12T04:00:31.645Z,99070.25
2024-03-12T04:03:00.107Z,99069.88
2024-03-12T04:05:28.386Z,99072.72
2024-03-12T04:07:56.580Z,99080.09
2024-03-12T04:10:25.013Z,99080.59
2024-03-12T04:12:57.544Z,99087.41
2024-03-12T04:15:30.320Z,99084.56
2024-03-12T04:17:59.279Z,99083.48
2024-03-12T04:20:27.852Z,99080.58
2024-03-12T04:22:57.073Z,99078.13
2024-03-12T04:25:25.371Z,99076.92
2024-03-12T04:27:54.909Z,99071.98
2024-03-12T04:30:23.874Z,99078.25
2024-03-12T04:32:52.147Z,99083.05
2024-03-12T04:35:20.267Z,99083.98
2024-03-12T04:37:49.488Z,99090.54
2024-03-12T04:40:19.331Z,99093.63
2024-03-12T04:42:48.226Z,99095.42
2024-03-12T04:45:16.346Z,99098.63
2024-03-12T04:47:45.157Z,99102.58
2024-03-12T04:50:15.925Z,99105.15
2024-03-12T04:52:44.268Z,99105.87
2024-03-12T04:55:14.465Z,99108.89
2024-03-12T04:57:43.938Z,99112.35
2024-03-12T05:00:16.700Z,99116.62
2024-03-12T05:02:49.785Z,99119.85
2024-03-12T05:05:19.739Z,99120.39
2024-03-12T05:07:49.402Z,99118.30
2024-03-12T05:10:18.964Z,99122.80
2024-03-12T05:12:47.393Z,99118.81
2024-03-12T05:15:15.966Z,99117.09
2024-03-12T05:17:44.284Z,99117.50
2024-03-12T05:20:16.360Z,99122.13
2024-03-12T05:22:48.294Z,99125.34
2024-03-12T05:25:40.896Z,99126.45
2024-03-12T05:28:11.254Z,99134.15
2024-03-12T05:30:43.758Z,99137.14
2024-03-12T05:33:15.836Z,99139.17
2024-03-12T05:35:52.806Z,99137.32
2024-03-12T05:38:32.251Z,99141.52
2024-03-12T05:41:10.668Z,99143.13
2024-03-12T05:43:57.617Z,99148.67
2024-03-12T05:46:46.425Z,99145.30
2024-03-12T05:49:17.604Z,99148.62
2024-03-12T05:51:46.003Z,99149.98
2024-03-12T05:54:14.344Z,99150.65
2024-03-12T05:56:42.717Z,99150.52
2024-03-12T05:59:11.953Z,99149.80
2024-03-12T06:01:40.139Z,99155.48
2024-03-12T06:04:08.425Z,99153.27
2024-03-12T06:06:36.931Z,99152.36
2024-03-12T06:09:05.072Z,99154.88
2024-03-12T06:11:33.438Z,99153.42
2024-03-12T06:14:04.336Z,99156.16
2024-03-12T06:16:33.911Z,99156.34
2024-03-12T06:19:02.286Z,99152.98
2024-03-12T06:21:31.270Z,99154.21
2024-03-12T06:23:59.564Z,99151.18
2024-03-12T06:26:28.137Z,99152.34
2024-03-12T06:28:56.881Z,99151.81
2024-03-12T06:31:25.241Z,99155.97
2024-03-12T06:33:53.630Z,99158.56
2024-03-12T06:36:21.999Z,99160.77
2024-03-12T06:38:52.470Z,99161.98
2024-03-12T06:41:20.892Z,99156.46
2024-03-12T06:43:48.971Z,99162.81
2024-03-12T06:46:21.022Z,99163.05
2024-03-12T06:48:49.760Z,99164.87
2024-03-12T06:51:17.900Z,99159.54
2024-03-12T06:53:46.260Z,99158.00
2024-03-12T06:56:17.768Z,99156.00
2024-03-12T06:58:47.234Z,99162.19
2024-03-12T07:01:16.878Z,99163.91
2024-03-12T07:03:47.155Z,99163.05
2024-03-12T07:06:16.760Z,99165.91
2024-03-12T07:08:45.996Z,99171.63
2024-03-12T07:11:15.969Z,99166.71
2024-03-12T07:13:44.775Z,99161.91
2024-03-12T07:16:12.831Z,99164.68
2024-03-12T07:18:41.018Z,99166.46
2024-03-12T07:21:11.280Z,99164.20
2024-03-12T07:23:39.541Z,99166.86
2024-03-12T07:26:08.088Z,99164.90
2024-03-12T07:28:36.770Z,99168.69
2024-03-12T07:31:05.158Z,99163.01
2024-03-12T07:33:33.590Z,99162.77
2024-03-12T07:36:05.828Z,99168.41
2024-03-12T07:38:33.970Z,99168.36
2024-03-12T07:41:02.164Z,99167.33
2024-03-12T07:43:31.285Z,99163.83
2024-03-12T07:45:59.479Z,99165.70
2024-03-12T07:48:28.028Z,99169.75
2024-03-12T07:50:59.541Z,99165.73
2024-03-12T07:53:31.318Z,99171.40
2024-03-12T07:56:02.545Z,99176.61
2024-03-12T07:58:31.341Z,99177.36
2024-03-12T08:01:00.932Z,99173.71
2024-03-12T08:03:29.671Z,99175.98
2024-03-12T08:05:59.011Z,99174.29
2024-03-12T08:08:27.394Z,99172.02
2024-03-12T08:10:58.759Z,99171.16
2024-03-12T08:13:27.868Z,99173.98
2024-03-12T08:15:56.067Z,99172.65
2024-03-12T08:18:24.253Z,99178.18
2024-03-12T08:20:53.453Z,99175.70
2024-03-12T08:23:21.584Z,99178.42
2024-03-12T08:25:56.390Z,99176.60
2024-03-12T08:28:29.150Z,99172.36
2024-03-12T08:31:02.538Z,99171.28
2024-03-12T08:33:36.742Z,99175.41
2024-03-12T08:36:05.690Z,99179.16
2024-03-12T08:38:34.356Z,99176.63
2024-03-12T08:41:02.746Z,99176.19
2024-03-12T08:43:31.090Z,99179.67
2024-03-12T08:45:59.939Z,99182.04
2024-03-12T08:48:28.541Z,99181.16
2024-03-12T08:50:59.460Z,99181.13
2024-03-12T08:53:27.728Z,99182.27
2024-03-12T08:55:55.716Z,99184.50
2024-03-12T08:58:24.782Z,99188.20
2024-03-12T09:00:53.607Z,99187.42
2024-03-12T09:03:22.535Z,99181.65
2024-03-12T09:05:51.663Z,99179.96
2024-03-12T09:08:19.893Z,99180.77
2024-03-12T09:10:49.025Z,99179.79
2024-03-12T09:13:17.904Z,99177.46
2024-03-12T09:15:46.310Z,99171.50
2024-03-12T09:18:21.402Z,99171.38
2024-03-12T09:20:50.743Z,99172.52
2024-03-12T09:23:20.436Z,99176.36
2024-03-12T09:25:48.920Z,99176.98
2024-03-12T09:28:19.108Z,99175.91
2024-03-12T09:30:47.328Z,99174.40
2024-03-12T09:33:15.616Z,99169.25
2024-03-12T09:35:44.566Z,99174.60
2024-03-12T09:38:12.774Z,99178.89
2024-03-12T09:40:43.903Z,99183.06
2024-03-12T09:43:13.679Z,99185.58
2024-03-12T09:45:42.139Z,99187.23
2024-03-12T09:48:10.577Z,99184.39
2024-03-12T09:50:38.864Z,99183.54
2024-03-12T09:53:07.020Z,99184.80
2024-03-12T09:55:36.775Z,99190.02
2024-03-12T09:58:05.563Z,99192.67
2024-03-12T10:00:34.835Z,99191.12
2024-03-12T10:03:03.200Z,99192.98
2024-03-12T10:05:33.220Z,99195.12
2024-03-12T10:08:16.689Z,99194.09
2024-03-12T10:10:46.788Z,99199.11
2024-03-12T10:13:19.343Z,99197.15
2024-03-12T10:15:52.251Z,99204.86
2024-03-12T10:18:22.364Z,99203.13
2024-03-12T10:20:51.488Z,99200.23
2024-03-12T10:23:22.388Z,99203.45
2024-03-12T10:25:50.767Z,99201.81
2024-03-12T10:28:26.406Z,99206.71
2024-03-12T10:31:10.713Z,99211.14
2024-03-12T10:33:46.696Z,99213.41
2024-03-12T10:36:30.002Z,99209.60
2024-03-12T10:38:58.223Z,99210.90
2024-03-12T10:41:27.128Z,99211.95
2024-03-12T10:44:09.026Z,99209.57
2024-03-12T10:46:40.534Z,99213.28
2024-03-12T10:49:14.222Z,99206.35
2024-03-12T10:51:44.905Z,99204.63
2024-03-12T10:54:15.703Z,99208.13
2024-03-12T10:56:47.218Z,99212.33
2024-03-12T10:59:17.788Z,99210.55
2024-03-12T11:01:49.291Z,99203.83
2024-03-12T11:04:18.841Z,99204.80
2024-03-12T11:06:50.028Z,99207.23
2024-03-12T11:09:23.205Z,99208.34
2024-03-12T11:11:52.139Z,99210.03
2024-03-12T11:14:20.596Z,99208.88
2024-03-12T11:16:49.264Z,99205.42
2024-03-12T11:19:24.855Z,99207.48
2024-03-12T11:21:55.276Z,99202.48
2024-03-12T11:24:33.510Z,99198.52
2024-03-12T11:27:02.054Z,99195.25
2024-03-12T11:30:13.129Z,99193.25
2024-03-12T11:32:43.041Z,99189.13
2024-03-12T11:35:17.539Z,99184.48
2024-03-12T11:38:01.385Z,99182.98
2024-03-12T11:40:48.222Z,99177.31
2024-03-12T11:43:43.102Z,99177.16
2024-03-12T11:46:17.192Z,99175.70
2024-03-12T11:48:46.875Z,99176.39
2024-03-12T11:51:16.311Z,99175.69
2024-03-12T11:53:48.619Z,99171.73
2024-03-12T11:56:23.952Z,99163.95
2024-03-12T11:58:59.595Z,99163.15
2024-03-12T12:01:35.265Z,99168.63
2024-03-12T12:04:06.745Z,99165.16
2024-03-12T12:06:35.284Z,99166.73
2024-03-12T12:09:10.536Z,99171.40
2024-03-12T12:11:40.104Z,99166.77
2024-03-12T12:14:10.731Z,99164.81
2024-03-12T12:16:41.135Z,99163.15
2024-03-12T12:19:16.340Z,99167.51
2024-03-12T12:21:53.291Z,99172.96
2024-03-12T12:24:26.732Z,99179.27
2024-03-12T12:26:57.377Z,99182.27
2024-03-12T12:29:30.135Z,99182.11
2024-03-12T12:31:58.944Z,99185.85
2024-03-12T12:34:29.829Z,99184.42
2024-03-12T12:36:59.885Z,99180.38
2024-03-12T12:39:40.111Z,99180.41
2024-03-12T12:42:12.316Z,99182.19
2024-03-12T12:44:41.446Z,99184.68
2024-03-12T12:47:11.511Z,99184.23
2024-03-12T12:49:40.278Z,99182.79
2024-03-12T12:52:08.827Z,99185.55
2024-03-12T12:54:40.690Z,99182.85
2024-03-12T12:57:11.904Z,99185.48
2024-03-12T12:59:41.362Z,99183.95
2024-03-12T13:02:19.991Z,99190.96
2024-03-12T13:04:56.662Z,99195.70
2024-03-12T13:07:34.241Z,99202.26
2024-03-12T13:10:16.537Z,99211.21
2024-03-12T13:12:46.539Z,99217.20
2024-03-12T13:15:29.500Z,99215.50
2024-03-12T13:17:57.819Z,99212.73
2024-03-12T13:20:26.394Z,99207.91
2024-03-12T13:22:56.391Z,99213.66
2024-03-12T13:25:24.586Z,99215.30
2024-03-12T13:27:52.764Z,99218.27
2024-03-12T13:30:21.188Z,99220.07
2024-03-12T13:32:49.382Z,99225.80
2024-03-12T13:35:20.408Z,99231.21
2024-03-12T13:37:48.497Z,99228.48
2024-03-12T13:40:16.894Z,99232.17
2024-03-12T13:42:45.059Z,99230.41
2024-03-12T13:45:13.397Z,99234.33
2024-03-12T13:47:42.053Z,99232.31
2024-03-12T13:50:11.050Z,99228.50
2024-03-12T13:52:40.629Z,99217.39
2024-03-12T13:55:12.831Z,99208.27
2024-03-12T13:57:42.930Z,99206.96
2024-03-12T14:00:12.896Z,99209.73
2024-03-12T14:02:41.445Z,99212.89
2024-03-12T14:05:10.401Z,99214.96
2024-03-12T14:07:38.526Z,99218.73
2024-03-12T14:10:09.257Z,99207.86
2024-03-12T14:12:38.609Z,99197.79
2024-03-12T14:15:07.430Z,99199.89
2024-03-12T14:17:35.810Z,99206.08
2024-03-12T14:20:12.148Z,99213.36
2024-03-12T14:22:40.466Z,99215.11
2024-03-12T14:25:09.297Z,99215.08
2024-03-12T14:27:37.660Z,99207.59
2024-03-12T14:30:10.213Z,99211.60
2024-03-12T14:32:38.451Z,99217.77
2024-03-12T14:35:07.400Z,99224.09
2024-03-12T14:37:35.555Z,99227.95
2024-03-12T14:40:09.044Z,99233.68
2024-03-12T14:42:39.220Z,99240.09
2024-03-12T14:45:11.738Z,99252.87
2024-03-12T14:47:42.098Z,99253.54
2024-03-12T14:50:11.213Z,99262.29
2024-03-12T14:52:39.791Z,99272.80
2024-03-12T14:55:09.698Z,99272.43
2024-03-12T14:57:38.327Z,99275.59
2024-03-12T15:00:18.065Z,99280.91
2024-03-12T15:02:47.352Z,99286.64
2024-03-12T15:05:16.120Z,99289.02
2024-03-12T15:07:45.399Z,99294.88
2024-03-12T15:10:13.826Z,99298.27
2024-03-12T15:12:42.757Z,99304.05
2024-03-12T15:15:12.470Z,99308.34
2024-03-12T15:17:43.269Z,99312.56
2024-03-12T15:20:15.916Z,99313.45
2024-03-12T15:22:46.897Z,99319.37
2024-03-12T15:25:16.579Z,99317.95
2024-03-12T15:27:44.926Z,99317.87
2024-03-12T15:30:13.940Z,99323.40
2024-03-12T15:32:42.924Z,99322.45
2024-03-12T15:35:15.554Z,99319.98
2024-03-12T15:37:43.921Z,99324.08
2024-03-12T15:40:14.033Z,99327.35
2024-03-12T15:42:45.306Z,99325.23
2024-03-12T15:45:17.179Z,99328.98
2024-03-12T15:47:47.334Z,99337.70
2024-03-12T15:50:18.551Z,99339.04
2024-03-12T15:52:47.728Z,99336.11
2024-03-12T15:55:16.234Z,99342.60
2024-03-12T15:57:47.307Z,99345.80
2024-03-12T16:00:16.209Z,99345.30
2024-03-12T16:02:45.438Z,99353.08
2024-03-12T16:05:14.272Z,99349.70
2024-03-12T16:07:42.444Z,99354.52
2024-03-12T16:10:11.330Z,99359.06
2024-03-12T16:12:43.005Z,99356.27
2024-03-12T16:15:15.571Z,99357.60
2024-03-12T16:17:44.260Z,99363.20
2024-03-12T16:20:16.653Z,99368.00
2024-03-12T16:22:45.209Z,99366.28
2024-03-12T16:25:17.326Z,99371.40
2024-03-12T16:27:45.882Z,99371.30
2024-03-12T16:30:15.922Z,99374.81
2024-03-12T16:32:45.901Z,99378.55
2024-03-12T16:35:16.796Z,99380.08
2024-03-12T16:37:45.563Z,99382.81
2024-03-12T16:40:14.371Z,99387.45
2024-03-12T16:42:45.791Z,99389.67
2024-03-12T16:45:14.908Z,99394.67
2024-03-12T16:47:43.443Z,99397.45
2024-03-12T16:50:12.633Z,99411.39
2024-03-12T16:52:41.701Z,99414.27
2024-03-12T16:55:11.504Z,99416.16
2024-03-12T16:57:40.609Z,99421.39
2024-03-12T17:00:15.634Z,99424.98
2024-03-12T17:02:45.870Z,99423.89
2024-03-12T17:05:20.188Z,99429.63
2024-03-12T17:07:49.890Z,99436.05
2024-03-12T17:10:20.092Z,99436.43
2024-03-12T17:12:49.773Z,99435.54
2024-03-12T17:15:21.707Z,99437.27
2024-03-12T17:17:50.986Z,99438.73
2024-03-12T17:20:19.424Z,99445.70
2024-03-12T17:22:49.312Z,99445.73
2024-03-12T17:25:20.370Z,99446.88
2024-03-12T17:27:50.727Z,99450.63
2024-03-12T17:30:21.230Z,99450.83
2024-03-12T17:32:50.692Z,99455.57
2024-03-12T17:35:20.264Z,99459.26
2024-03-12T17:37:54.065Z,99459.23
2024-03-12T17:40:23.732Z,99456.00
2024-03-12T17:42:53.228Z,99459.63
2024-03-12T17:45:25.265Z,99463.80
2024-03-12T17:47:56.526Z,99467.91
2024-03-12T17:50:28.792Z,99466.35
2024-03-12T17:53:03.318Z,99470.16
2024-03-12T17:55:32.398Z,99474.40
2024-03-12T17:58:01.574Z,99474.73
2024-03-12T18:00:31.232Z,99479.17
2024-03-12T18:03:00.684Z,99477.73
2024-03-12T18:05:29.880Z,99478.66
2024-03-12T18:08:00.420Z,99481.79
2024-03-12T18:10:30.220Z,99485.14
2024-03-12T18:12:58.912Z,99483.59
2024-03-12T18:15:29.195Z,99488.08
2024-03-12T18:17:57.419Z,99490.97
2024-03-12T18:20:31.520Z,99495.23
2024-03-12T18:23:00.101Z,99499.34
2024-03-12T18:25:28.638Z,99502.50
2024-03-12T18:27:58.020Z,99507.55
2024-03-12T18:30:27.581Z,99512.70
2024-03-12T18:32:57.526Z,99516.55
2024-03-12T18:35:26.709Z,99520.34
2024-03-12T18:37:54.890Z,99523.20
2024-03-12T18:40:23.675Z,99530.05
2024-03-12T18:42:52.633Z,99531.73
2024-03-12T18:45:24.188Z,99536.42
2024-03-12T18:47:56.420Z,99540.89
2024-03-12T18:50:25.813Z,99542.71
2024-03-12T18:52:54.881Z,99545.66
2024-03-12T18:55:23.751Z,99541.61
2024-03-12T18:57:52.595Z,99542.04
2024-03-12T19:00:24.911Z,99542.45
2024-03-12T19:02:55.176Z,99542.15
2024-03-12T19:05:26.002Z,99544.77
2024-03-12T19:07:56.377Z,99542.94
2024-03-12T19:10:30.737Z,99544.73
2024-03-12T19:13:00.676Z,99547.46
2024-03-12T19:15:37.572Z,99550.38
2024-03-12T19:18:15.185Z,99553.91
2024-03-12T19:20:43.909Z,99551.30
2024-03-12T19:23:12.663Z,99552.58
2024-03-12T19:25:41.453Z,99546.44
2024-03-12T19:28:10.091Z,99547.97
2024-03-12T19:30:39.753Z,99549.08
2024-03-12T19:33:10.365Z,99548.85
2024-03-12T19:35:40.267Z,99547.98
2024-03-12T19:38:10.604Z,99551.77
2024-03-12T19:40:39.203Z,99552.42
2024-03-12T19:43:08.035Z,99553.19
2024-03-12T19:45:36.680Z,99555.28
2024-03-12T19:48:07.144Z,99551.76
2024-03-12T19:50:36.946Z,99557.06
2024-03-12T19:53:05.044Z,99553.94
2024-03-12T19:55:35.644Z,99553.71
2024-03-12T19:58:05.660Z,99555.35
2024-03-12T20:00:34.660Z,99548.35
2024-03-12T20:03:07.800Z,99550.75
2024-03-12T20:05:37.487Z,99548.58
2024-03-12T20:08:10.659Z,99549.13
2024-03-12T20:10:39.435Z,99549.16
2024-03-12T20:13:08.089Z,99549.24
2024-03-12T20:15:38.397Z,99548.89
2024-03-12T20:18:07.675Z,99554.55
2024-03-12T20:20:36.934Z,99557.35
2024-03-12T20:23:07.220Z,99558.30
2024-03-12T20:25:35.964Z,99558.79
2024-03-12T20:28:11.010Z,99557.89
2024-03-12T20:30:41.061Z,99554.39
2024-03-12T20:33:12.072Z,99556.45
2024-03-12T20:35:40.409Z,99556.05
2024-03-12T20:38:10.252Z,99551.31
2024-03-12T20:40:38.980Z,99553.60
2024-03-12T20:43:07.718Z,99557.25
2024-03-12T20:45:39.321Z,99553.71
2024-03-12T20:48:11.814Z,99554.79
2024-03-12T20:50:41.279Z,99555.35
2024-03-12T20:53:11.740Z,99556.20
2024-03-12T20:55:40.621Z,99559.32
2024-03-12T20:58:09.205Z,99560.23
2024-03-12T21:00:39.293Z,99559.50
2024-03-12T21:03:11.522Z,99556.32
2024-03-12T21:05:40.796Z,99559.62
2024-03-12T21:08:09.461Z,99558.95
2024-03-12T21:10:39.436Z,99562.54
2024-03-12T21:13:07.917Z,99569.96
2024-03-12T21:15:36.316Z,99567.86
2024-03-12T21:18:07.396Z,99568.76
2024-03-12T21:20:35.826Z,99572.38
2024-03-12T21:23:05.238Z,99571.96
2024-03-12T21:25:36.350Z,99569.06
2024-03-12T21:28:04.940Z,99572.58
2024-03-12T21:30:33.173Z,99574.10
2024-03-12T21:33:01.285Z,99574.67
2024-03-12T21:35:30.189Z,99578.69
2024-03-12T21:37:58.958Z,99576.27
2024-03-12T21:40:28.107Z,99577.32
2024-03-12T21:42:56.442Z,99580.08
2024-03-12T21:45:25.931Z,99578.67
2024-03-12T21:47:54.373Z,99577.55
2024-03-12T21:50:22.994Z,99586.19
2024-03-12T21:52:51.848Z,99589.02
2024-03-12T21:55:20.272Z,99584.73
2024-03-12T21:57:49.302Z,99595.49
2024-03-12T22:00:25.531Z,99597.50
2024-03-12T22:02:54.003Z,99598.25
2024-03-12T22:05:22.740Z,99596.46
2024-03-12T22:07:51.455Z,99597.00
2024-03-12T22:10:20.589Z,99596.67
2024-03-12T22:12:49.334Z,99590.74
2024-03-12T22:15:17.648Z,99594.70
2024-03-12T22:17:47.260Z,99592.86
2024-03-12T22:20:19.959Z,99590.23
2024-03-12T22:22:49.672Z,99594.45
2024-03-12T22:25:19.513Z,99597.31
2024-03-12T22:27:49.856Z,99596.11
2024-03-12T22:30:18.789Z,99591.80
2024-03-12T22:32:48.536Z,99592.20
2024-03-12T22:35:17.149Z,99593.56
2024-03-12T22:37:48.981Z,99596.76
2024-03-12T22:40:18.373Z,99588.86
2024-03-12T22:42:47.191Z,99587.91
2024-03-12T22:45:16.358Z,99588.61
2024-03-12T22:47:44.951Z,99587.97
2024-03-12T22:50:14.254Z,99593.85
2024-03-12T22:52:46.466Z,99593.77
2024-03-12T22:55:15.609Z,99594.16
2024-03-12T22:57:44.292Z,99598.34
2024-03-12T23:00:40.675Z,99603.19
2024-03-12T23:03:11.102Z,99605.59
2024-03-12T23:05:41.934Z,99608.16
2024-03-12T23:08:15.642Z,99605.23
2024-03-12T23:10:47.393Z,99610.27
2024-03-12T23:13:17.570Z,99610.30
2024-03-12T23:15:48.238Z,99611.98
2024-03-12T23:18:16.927Z,99614.01
2024-03-12T23:20:47.307Z,99613.21
2024-03-12T23:23:16.236Z,99608.67
2024-03-12T23:25:45.456Z,99608.52
2024-03-12T23:28:14.463Z,99609.58
2024-03-12T23:30:45.599Z,99607.37
2024-03-12T23:33:15.216Z,99606.67
2024-03-12T23:35:43.835Z,99600.23
2024-03-12T23:38:12.969Z,99602.25
2024-03-12T23:40:42.303Z,99604.95
2024-03-12T23:43:11.955Z,99607.10
2024-03-12T23:45:40.062Z,99610.30
2024-03-12T23:48:08.281Z,99610.96
2024-03-12T23:50:37.315Z,99610.45
2024-03-12T23:53:06.875Z,99606.94
2024-03-12T23:55:35.664Z,99610.55
2024-03-12T23:58:05.494Z,99608.58
